sensor_id;sensor_type;location;lat;lon;timestamp;pressure;altitude;pressure_sealevel;temperature;humidity
26443;BME280;5563;52.296;6.806;2023-06-19T00:01:38;100685.94;;;22.63;44.35
26443;BME280;5563;52.296;6.806;2023-06-19T00:04:05;100691.81;;;22.60;44.81
26443;BME280;5563;52.296;6.806;2023-06-19T00:06:40;100693.69;;;22.59;45.00
26443;BME280;5563;52.296;6.806;2023-06-19T00:09:07;100704.75;;;22.58;45.46
26443;BME280;5563;52.296;6.806;2023-06-19T00:11:40;100705.31;;;22.53;45.03
26443;BME280;5563;52.296;6.806;2023-06-19T00:14:13;100699.03;;;22.46;44.78
26443;BME280;5563;52.296;6.806;2023-06-19T00:16:47;100699.44;;;22.49;45.91
26443;BME280;5563;52.296;6.806;2023-06-19T00:19:14;100693.59;;;22.46;45.12
26443;BME280;5563;52.296;6.806;2023-06-19T00:21:41;100694.44;;;22.46;45.21
26443;BME280;5563;52.296;6.806;2023-06-19T00:24:15;100698.44;;;22.50;45.12
26443;BME280;5563;52.296;6.806;2023-06-19T00:26:43;100689.84;;;22.47;45.56
26443;BME280;5563;52.296;6.806;2023-06-19T00:29:16;100695.06;;;22.48;45.53
26443;BME280;5563;52.296;6.806;2023-06-19T00:31:43;100677.50;;;22.44;46.14
26443;BME280;5563;52.296;6.806;2023-06-19T00:34:16;100675.41;;;22.40;46.02
26443;BME280;5563;52.296;6.806;2023-06-19T00:36:43;100674.78;;;22.38;45.92
26443;BME280;5563;52.296;6.806;2023-06-19T00:39:23;100685.44;;;22.39;46.23
26443;BME280;5563;52.296;6.806;2023-06-19T00:41:52;100687.91;;;22.34;46.73
26443;BME280;5563;52.296;6.806;2023-06-19T00:44:27;100672.84;;;22.32;46.27
26443;BME280;5563;52.296;6.806;2023-06-19T00:46:58;100679.34;;;22.31;46.90
26443;BME280;5563;52.296;6.806;2023-06-19T00:49:32;100677.00;;;22.28;47.06
26443;BME280;5563;52.296;6.806;2023-06-19T00:52:00;100687.28;;;22.26;47.52
26443;BME280;5563;52.296;6.806;2023-06-19T00:54:27;100690.78;;;22.20;47.70
26443;BME280;5563;52.296;6.806;2023-06-19T00:57:01;100684.69;;;22.11;47.34
26443;BME280;5563;52.296;6.806;2023-06-19T00:59:39;100696.78;;;22.09;47.50
26443;BME280;5563;52.296;6.806;2023-06-19T01:02:12;100690.28;;;22.03;48.81
26443;BME280;5563;52.296;6.806;2023-06-19T01:04:40;100693.63;;;21.99;48.07
26443;BME280;5563;52.296;6.806;2023-06-19T01:07:18;100697.75;;;21.95;48.55
26443;BME280;5563;52.296;6.806;2023-06-19T01:09:53;100698.16;;;21.92;48.84
26443;BME280;5563;52.296;6.806;2023-06-19T01:12:38;100699.84;;;21.93;48.46
26443;BME280;5563;52.296;6.806;2023-06-19T01:15:07;100701.31;;;21.95;48.65
26443;BME280;5563;52.296;6.806;2023-06-19T01:17:43;100710.75;;;21.99;49.26
26443;BME280;5563;52.296;6.806;2023-06-19T01:20:13;100687.53;;;21.97;48.92
26443;BME280;5563;52.296;6.806;2023-06-19T01:22:47;100677.72;;;21.96;49.61
26443;BME280;5563;52.296;6.806;2023-06-19T01:25:14;100707.88;;;22.14;48.65
26443;BME280;5563;52.296;6.806;2023-06-19T01:27:49;100694.56;;;22.25;49.24
26443;BME280;5563;52.296;6.806;2023-06-19T01:30:16;100700.88;;;22.32;49.05
26443;BME280;5563;52.296;6.806;2023-06-19T01:32:58;100691.66;;;22.33;48.41
26443;BME280;5563;52.296;6.806;2023-06-19T01:35:28;100703.00;;;22.43;48.82
26443;BME280;5563;52.296;6.806;2023-06-19T01:38:02;100704.06;;;22.49;49.61
26443;BME280;5563;52.296;6.806;2023-06-19T01:40:30;100696.72;;;22.49;49.49
26443;BME280;5563;52.296;6.806;2023-06-19T01:43:18;100704.34;;;22.61;49.75
26443;BME280;5563;52.296;6.806;2023-06-19T01:45:52;100707.91;;;22.61;49.22
26443;BME280;5563;52.296;6.806;2023-06-19T01:48:26;100707.06;;;22.67;49.32
26443;BME280;5563;52.296;6.806;2023-06-19T01:51:00;100711.47;;;22.68;48.96
26443;BME280;5563;52.296;6.806;2023-06-19T01:53:30;100713.13;;;22.69;49.13
26443;BME280;5563;52.296;6.806;2023-06-19T01:56:04;100711.47;;;22.68;49.80
26443;BME280;5563;52.296;6.806;2023-06-19T01:58:31;100701.63;;;22.61;49.71
26443;BME280;5563;52.296;6.806;2023-06-19T02:01:05;100706.41;;;22.59;49.93
26443;BME280;5563;52.296;6.806;2023-06-19T02:03:33;100713.13;;;22.56;50.07
26443;BME280;5563;52.296;6.806;2023-06-19T02:06:06;100721.06;;;22.58;50.43
26443;BME280;5563;52.296;6.806;2023-06-19T02:08:33;100707.25;;;22.59;50.69
26443;BME280;5563;52.296;6.806;2023-06-19T02:11:07;100721.91;;;22.58;50.44
26443;BME280;5563;52.296;6.806;2023-06-19T02:13:34;100714.72;;;22.50;51.13
26443;BME280;5563;52.296;6.806;2023-06-19T02:16:08;100721.63;;;22.53;50.70
26443;BME280;5563;52.296;6.806;2023-06-19T02:18:35;100719.13;;;22.51;51.19
26443;BME280;5563;52.296;6.806;2023-06-19T02:21:08;100718.47;;;22.49;50.73
26443;BME280;5563;52.296;6.806;2023-06-19T02:23:35;100724.97;;;22.48;51.31
26443;BME280;5563;52.296;6.806;2023-06-19T02:26:02;100732.28;;;22.48;50.96
26443;BME280;5563;52.296;6.806;2023-06-19T02:28:36;100720.75;;;22.46;50.86
26443;BME280;5563;52.296;6.806;2023-06-19T02:31:09;100725.97;;;22.41;51.59
26443;BME280;5563;52.296;6.806;2023-06-19T02:33:42;100721.81;;;22.38;51.31
26443;BME280;5563;52.296;6.806;2023-06-19T02:36:10;100716.53;;;22.37;51.38
26443;BME280;5563;52.296;6.806;2023-06-19T02:38:44;100726.19;;;22.39;51.77
26443;BME280;5563;52.296;6.806;2023-06-19T02:41:17;100734.75;;;22.36;51.54
26443;BME280;5563;52.296;6.806;2023-06-19T02:43:57;100721.31;;;22.28;51.88
26443;BME280;5563;52.296;6.806;2023-06-19T02:46:24;100730.75;;;22.32;51.39
26443;BME280;5563;52.296;6.806;2023-06-19T02:48:58;100734.69;;;22.30;51.67
26443;BME280;5563;52.296;6.806;2023-06-19T02:51:25;100732.41;;;22.27;52.01
26443;BME280;5563;52.296;6.806;2023-06-19T02:53:52;100740.09;;;22.23;52.16
26443;BME280;5563;52.296;6.806;2023-06-19T02:56:26;100746.97;;;22.19;51.74
26443;BME280;5563;52.296;6.806;2023-06-19T02:59:07;100743.19;;;22.14;52.35
26443;BME280;5563;52.296;6.806;2023-06-19T03:01:33;100742.31;;;22.07;51.74
26443;BME280;5563;52.296;6.806;2023-06-19T03:04:07;100746.47;;;22.03;52.03
26443;BME280;5563;52.296;6.806;2023-06-19T03:06:41;100747.91;;;21.99;52.69
26443;BME280;5563;52.296;6.806;2023-06-19T03:09:08;100754.13;;;21.93;52.61
26443;BME280;5563;52.296;6.806;2023-06-19T03:11:48;100754.72;;;21.82;53.11
26443;BME280;5563;52.296;6.806;2023-06-19T03:14:22;100753.38;;;21.78;53.34
26443;BME280;5563;52.296;6.806;2023-06-19T03:16:55;100756.88;;;21.72;53.47
26443;BME280;5563;52.296;6.806;2023-06-19T03:19:22;100760.84;;;21.69;53.49
26443;BME280;5563;52.296;6.806;2023-06-19T03:21:56;100757.69;;;21.66;53.56
26443;BME280;5563;52.296;6.806;2023-06-19T03:24:23;100761.19;;;21.60;53.85
26443;BME280;5563;52.296;6.806;2023-06-19T03:26:56;100768.03;;;21.56;53.74
26443;BME280;5563;52.296;6.806;2023-06-19T03:29:24;100759.84;;;21.49;53.37
26443;BME280;5563;52.296;6.806;2023-06-19T03:31:57;100761.66;;;21.42;54.45
26443;BME280;5563;52.296;6.806;2023-06-19T03:34:25;100779.22;;;21.46;54.19
26443;BME280;5563;52.296;6.806;2023-06-19T03:36:52;100771.66;;;21.41;54.58
26443;BME280;5563;52.296;6.806;2023-06-19T03:39:26;100784.56;;;21.39;55.14
26443;BME280;5563;52.296;6.806;2023-06-19T03:42:06;100785.81;;;21.37;55.38
26443;BME280;5563;52.296;6.806;2023-06-19T03:44:41;100781.38;;;21.29;55.30
26443;BME280;5563;52.296;6.806;2023-06-19T03:47:08;100790.34;;;21.30;55.51
26443;BME280;5563;52.296;6.806;2023-06-19T03:49:42;100784.69;;;21.25;56.19
26443;BME280;5563;52.296;6.806;2023-06-19T03:52:10;100789.00;;;21.19;56.59
26443;BME280;5563;52.296;6.806;2023-06-19T03:54:43;100793.56;;;21.19;56.45
26443;BME280;5563;52.296;6.806;2023-06-19T03:57:10;100797.94;;;21.20;56.96
26443;BME280;5563;52.296;6.806;2023-06-19T03:59:43;100797.34;;;21.18;57.30
26443;BME280;5563;52.296;6.806;2023-06-19T04:02:16;100789.56;;;21.15;57.63
26443;BME280;5563;52.296;6.806;2023-06-19T04:04:43;100793.31;;;21.14;57.88
26443;BME280;5563;52.296;6.806;2023-06-19T04:07:16;100786.41;;;21.11;57.68
26443;BME280;5563;52.296;6.806;2023-06-19T04:09:49;100790.91;;;21.04;57.77
26443;BME280;5563;52.296;6.806;2023-06-19T04:12:23;100790.06;;;21.04;57.87
26443;BME280;5563;52.296;6.806;2023-06-19T04:15:00;100803.00;;;21.02;58.30
26443;BME280;5563;52.296;6.806;2023-06-19T04:17:33;100799.16;;;20.96;58.17
26443;BME280;5563;52.296;6.806;2023-06-19T04:20:07;100799.69;;;20.92;58.68
26443;BME280;5563;52.296;6.806;2023-06-19T04:22:39;100795.44;;;20.83;58.91
26443;BME280;5563;52.296;6.806;2023-06-19T04:25:14;100812.72;;;20.82;59.49
26443;BME280;5563;52.296;6.806;2023-06-19T04:27:48;100821.41;;;20.77;59.72
26443;BME280;5563;52.296;6.806;2023-06-19T04:30:34;100823.22;;;20.70;60.72
26443;BME280;5563;52.296;6.806;2023-06-19T04:33:10;100823.53;;;20.61;60.74
26443;BME280;5563;52.296;6.806;2023-06-19T04:35:37;100830.34;;;20.57;61.28
26443;BME280;5563;52.296;6.806;2023-06-19T04:38:12;100833.78;;;20.51;62.36
26443;BME280;5563;52.296;6.806;2023-06-19T04:40:47;100845.38;;;20.45;62.78
26443;BME280;5563;52.296;6.806;2023-06-19T04:43:21;100841.28;;;20.34;62.80
26443;BME280;5563;52.296;6.806;2023-06-19T04:45:57;100857.72;;;20.32;63.25
26443;BME280;5563;52.296;6.806;2023-06-19T04:48:31;100853.88;;;20.27;64.02
26443;BME280;5563;52.296;6.806;2023-06-19T04:50:59;100854.31;;;20.16;64.63
26443;BME280;5563;52.296;6.806;2023-06-19T04:53:34;100851.31;;;20.11;65.37
26443;BME280;5563;52.296;6.806;2023-06-19T04:56:07;100855.22;;;20.08;65.69
26443;BME280;5563;52.296;6.806;2023-06-19T04:58:35;100861.50;;;20.09;65.00
26443;BME280;5563;52.296;6.806;2023-06-19T05:01:12;100853.47;;;20.01;65.44
26443;BME280;5563;52.296;6.806;2023-06-19T05:03:40;100851.09;;;19.98;66.15
26443;BME280;5563;52.296;6.806;2023-06-19T05:06:14;100869.59;;;20.09;65.64
26443;BME280;5563;52.296;6.806;2023-06-19T05:08:42;100836.81;;;19.89;65.90
26443;BME280;5563;52.296;6.806;2023-06-19T05:11:16;100869.91;;;20.14;66.11
26443;BME280;5563;52.296;6.806;2023-06-19T05:13:43;100836.91;;;19.96;65.80
26443;BME280;5563;52.296;6.806;2023-06-19T05:16:16;100863.47;;;20.15;65.81
26443;BME280;5563;52.296;6.806;2023-06-19T05:18:53;100860.75;;;20.15;66.13
26443;BME280;5563;52.296;6.806;2023-06-19T05:21:20;100833.75;;;20.07;66.42
26443;BME280;5563;52.296;6.806;2023-06-19T05:23:54;100858.00;;;20.23;65.82
26443;BME280;5563;52.296;6.806;2023-06-19T05:26:21;100884.91;;;20.39;65.94
26443;BME280;5563;52.296;6.806;2023-06-19T05:28:54;100878.91;;;20.43;65.61
26443;BME280;5563;52.296;6.806;2023-06-19T05:31:21;100898.91;;;20.42;66.07
26443;BME280;5563;52.296;6.806;2023-06-19T05:33:55;100886.88;;;20.45;66.63
26443;BME280;5563;52.296;6.806;2023-06-19T05:36:22;100884.44;;;20.50;66.74
26443;BME280;5563;52.296;6.806;2023-06-19T05:38:56;100894.88;;;20.53;66.08
26443;BME280;5563;52.296;6.806;2023-06-19T05:41:30;100884.91;;;20.54;66.38
26443;BME280;5563;52.296;6.806;2023-06-19T05:44:05;100889.28;;;20.55;66.52
26443;BME280;5563;52.296;6.806;2023-06-19T05:46:31;100895.53;;;20.55;65.89
26443;BME280;5563;52.296;6.806;2023-06-19T05:49:05;100892.44;;;20.58;66.17
26443;BME280;5563;52.296;6.806;2023-06-19T05:51:39;100888.06;;;20.57;66.43
26443;BME280;5563;52.296;6.806;2023-06-19T05:54:06;100891.06;;;20.62;66.42
26443;BME280;5563;52.296;6.806;2023-06-19T05:56:41;100883.31;;;20.59;66.92
26443;BME280;5563;52.296;6.806;2023-06-19T05:59:13;100896.47;;;20.62;66.59
26443;BME280;5563;52.296;6.806;2023-06-19T06:01:47;100896.94;;;20.66;66.93
26443;BME280;5563;52.296;6.806;2023-06-19T06:04:20;100905.91;;;20.66;67.11
26443;BME280;5563;52.296;6.806;2023-06-19T06:06:55;100907.19;;;20.70;66.97
26443;BME280;5563;52.296;6.806;2023-06-19T06:09:28;100903.94;;;20.75;67.23
26443;BME280;5563;52.296;6.806;2023-06-19T06:12:04;100918.88;;;20.85;66.86
26443;BME280;5563;52.296;6.806;2023-06-19T06:14:37;100914.19;;;20.94;67.30
26443;BME280;5563;52.296;6.806;2023-06-19T06:17:06;100924.03;;;20.95;66.61
26443;BME280;5563;52.296;6.806;2023-06-19T06:19:40;100922.72;;;20.91;66.77
26443;BME280;5563;52.296;6.806;2023-06-19T06:22:13;100922.25;;;20.87;67.10
26443;BME280;5563;52.296;6.806;2023-06-19T06:24:40;100935.03;;;20.93;66.12
26443;BME280;5563;52.296;6.806;2023-06-19T06:27:07;100932.31;;;20.93;66.77
26443;BME280;5563;52.296;6.806;2023-06-19T06:29:44;100928.41;;;20.96;66.37
26443;BME280;5563;52.296;6.806;2023-06-19T06:32:11;100929.16;;;20.90;66.68
26443;BME280;5563;52.296;6.806;2023-06-19T06:34:44;100931.31;;;20.80;67.31
26443;BME280;5563;52.296;6.806;2023-06-19T06:37:11;100942.91;;;20.88;67.97
26443;BME280;5563;52.296;6.806;2023-06-19T06:39:44;100933.09;;;20.87;67.14
26443;BME280;5563;52.296;6.806;2023-06-19T06:42:24;100937.22;;;20.83;67.25
26443;BME280;5563;52.296;6.806;2023-06-19T06:44:57;100933.19;;;20.79;67.41
26443;BME280;5563;52.296;6.806;2023-06-19T06:47:24;100941.97;;;20.81;67.24
26443;BME280;5563;52.296;6.806;2023-06-19T06:49:57;100934.31;;;20.85;67.51
26443;BME280;5563;52.296;6.806;2023-06-19T06:52:30;100946.53;;;20.95;66.94
26443;BME280;5563;52.296;6.806;2023-06-19T06:54:58;100951.91;;;21.03;67.14
26443;BME280;5563;52.296;6.806;2023-06-19T06:57:32;100952.44;;;21.13;67.01
26443;BME280;5563;52.296;6.806;2023-06-19T06:59:58;100953.81;;;21.24;67.41
26443;BME280;5563;52.296;6.806;2023-06-19T07:02:31;100949.13;;;21.32;66.73
26443;BME280;5563;52.296;6.806;2023-06-19T07:04:58;100960.19;;;21.31;66.47
26443;BME280;5563;52.296;6.806;2023-06-19T07:07:31;100961.03;;;21.31;67.12
26443;BME280;5563;52.296;6.806;2023-06-19T07:09:58;100953.09;;;21.30;67.21
26443;BME280;5563;52.296;6.806;2023-06-19T07:12:31;100959.63;;;21.35;66.88
26443;BME280;5563;52.296;6.806;2023-06-19T07:14:59;100960.81;;;21.33;67.01
26443;BME280;5563;52.296;6.806;2023-06-19T07:17:33;100966.06;;;21.34;67.17
26443;BME280;5563;52.296;6.806;2023-06-19T07:19:59;100972.78;;;21.38;67.01
26443;BME280;5563;52.296;6.806;2023-06-19T07:22:33;100968.47;;;21.44;66.97
26443;BME280;5563;52.296;6.806;2023-06-19T07:25:07;100980.53;;;21.41;66.26
26443;BME280;5563;52.296;6.806;2023-06-19T07:27:34;100984.94;;;21.42;66.36
26443;BME280;5563;52.296;6.806;2023-06-19T07:30:08;100991.84;;;21.45;66.12
26443;BME280;5563;52.296;6.806;2023-06-19T07:32:42;100997.41;;;21.37;66.50
26443;BME280;5563;52.296;6.806;2023-06-19T07:35:17;100989.72;;;21.40;66.62
26443;BME280;5563;52.296;6.806;2023-06-19T07:37:44;100984.84;;;21.36;65.90
26443;BME280;5563;52.296;6.806;2023-06-19T07:40:17;100992.16;;;21.35;66.34
26443;BME280;5563;52.296;6.806;2023-06-19T07:42:51;100984.38;;;21.32;66.83
26443;BME280;5563;52.296;6.806;2023-06-19T07:45:24;100995.34;;;21.39;66.65
26443;BME280;5563;52.296;6.806;2023-06-19T07:47:58;100999.44;;;21.50;66.69
26443;BME280;5563;52.296;6.806;2023-06-19T07:50:31;100996.59;;;21.58;66.66
26443;BME280;5563;52.296;6.806;2023-06-19T07:52:59;100994.41;;;21.68;66.63
26443;BME280;5563;52.296;6.806;2023-06-19T07:55:32;100996.09;;;21.69;65.45
26443;BME280;5563;52.296;6.806;2023-06-19T07:58:01;100985.97;;;21.77;65.46
26443;BME280;5563;52.296;6.806;2023-06-19T08:00:34;100999.25;;;21.87;64.47
26443;BME280;5563;52.296;6.806;2023-06-19T08:03:02;101006.75;;;21.85;64.94
26443;BME280;5563;52.296;6.806;2023-06-19T08:05:40;101011.16;;;21.71;65.00
26443;BME280;5563;52.296;6.806;2023-06-19T08:08:07;101009.16;;;21.59;65.58
26443;BME280;5563;52.296;6.806;2023-06-19T08:10:46;101014.13;;;21.55;66.46
26443;BME280;5563;52.296;6.806;2023-06-19T08:13:14;101007.66;;;21.56;66.20
26443;BME280;5563;52.296;6.806;2023-06-19T08:15:53;101017.66;;;21.56;66.15
26443;BME280;5563;52.296;6.806;2023-06-19T08:18:26;101020.09;;;21.51;66.27
26443;BME280;5563;52.296;6.806;2023-06-19T08:20:54;101024.88;;;21.48;66.26
26443;BME280;5563;52.296;6.806;2023-06-19T08:23:28;101025.00;;;21.40;67.55
26443;BME280;5563;52.296;6.806;2023-06-19T08:25:55;101030.59;;;21.39;67.59
26443;BME280;5563;52.296;6.806;2023-06-19T08:28:31;101033.03;;;21.34;67.17
26443;BME280;5563;52.296;6.806;2023-06-19T08:30:59;101025.56;;;21.21;67.62
26443;BME280;5563;52.296;6.806;2023-06-19T08:33:37;101044.44;;;21.29;67.38
26443;BME280;5563;52.296;6.806;2023-06-19T08:36:06;101042.00;;;21.34;67.65
26443;BME280;5563;52.296;6.806;2023-06-19T08:38:41;101026.03;;;21.25;67.53
26443;BME280;5563;52.296;6.806;2023-06-19T08:41:17;101028.44;;;21.20;67.57
26443;BME280;5563;52.296;6.806;2023-06-19T08:44:05;101046.41;;;21.35;67.55
26443;BME280;5563;52.296;6.806;2023-06-19T08:46:33;101035.84;;;21.26;67.15
26443;BME280;5563;52.296;6.806;2023-06-19T08:49:08;101051.28;;;21.25;67.16
26443;BME280;5563;52.296;6.806;2023-06-19T08:51:42;101045.31;;;21.15;67.99
26443;BME280;5563;52.296;6.806;2023-06-19T08:54:18;101043.59;;;21.14;68.19
26443;BME280;5563;52.296;6.806;2023-06-19T08:56:55;101050.34;;;21.18;68.10
26443;BME280;5563;52.296;6.806;2023-06-19T08:59:30;101051.66;;;21.22;67.76
26443;BME280;5563;52.296;6.806;2023-06-19T09:02:01;101055.50;;;21.28;67.94
26443;BME280;5563;52.296;6.806;2023-06-19T09:04:38;101058.09;;;21.36;67.72
26443;BME280;5563;52.296;6.806;2023-06-19T09:07:07;101054.72;;;21.48;67.71
26443;BME280;5563;52.296;6.806;2023-06-19T09:09:48;101049.47;;;21.62;66.65
26443;BME280;5563;52.296;6.806;2023-06-19T09:12:25;101062.56;;;21.73;65.83
26443;BME280;5563;52.296;6.806;2023-06-19T09:14:54;101069.38;;;21.83;65.77
26443;BME280;5563;52.296;6.806;2023-06-19T09:17:34;101041.28;;;21.76;65.23
26443;BME280;5563;52.296;6.806;2023-06-19T09:20:01;101054.22;;;21.89;65.48
26443;BME280;5563;52.296;6.806;2023-06-19T09:22:38;101071.03;;;21.99;64.70
26443;BME280;5563;52.296;6.806;2023-06-19T09:25:06;101058.94;;;22.01;64.63
26443;BME280;5563;52.296;6.806;2023-06-19T09:27:43;101051.06;;;22.06;65.03
26443;BME280;5563;52.296;6.806;2023-06-19T09:30:16;101081.06;;;22.40;64.74
26443;BME280;5563;52.296;6.806;2023-06-19T09:32:44;101067.59;;;22.53;63.58
26443;BME280;5563;52.296;6.806;2023-06-19T09:35:18;101054.25;;;22.80;63.16
26443;BME280;5563;52.296;6.806;2023-06-19T09:37:52;101063.16;;;22.95;61.25
26443;BME280;5563;52.296;6.806;2023-06-19T09:40:20;101075.69;;;22.96;60.98
26443;BME280;5563;52.296;6.806;2023-06-19T09:42:56;101082.69;;;23.11;60.31
26443;BME280;5563;52.296;6.806;2023-06-19T09:45:31;101071.41;;;23.42;59.10
26443;BME280;5563;52.296;6.806;2023-06-19T09:48:07;101076.53;;;23.65;56.45
26443;BME280;5563;52.296;6.806;2023-06-19T09:50:42;101047.59;;;23.50;56.90
26443;BME280;5563;52.296;6.806;2023-06-19T09:53:19;101077.19;;;23.67;55.06
26443;BME280;5563;52.296;6.806;2023-06-19T09:55:49;101077.03;;;23.75;55.28
26443;BME280;5563;52.296;6.806;2023-06-19T09:58:26;101051.88;;;23.73;55.08
26443;BME280;5563;52.296;6.806;2023-06-19T10:00:54;101055.03;;;23.76;54.00
26443;BME280;5563;52.296;6.806;2023-06-19T10:03:33;101076.44;;;23.86;53.99
26443;BME280;5563;52.296;6.806;2023-06-19T10:06:14;101082.34;;;23.96;54.12
26443;BME280;5563;52.296;6.806;2023-06-19T10:08:43;101074.59;;;23.99;53.86
26443;BME280;5563;52.296;6.806;2023-06-19T10:11:16;101082.22;;;24.17;52.20
26443;BME280;5563;52.296;6.806;2023-06-19T10:13:50;101092.31;;;24.36;51.86
26443;BME280;5563;52.296;6.806;2023-06-19T10:16:21;101093.38;;;24.61;50.01
26443;BME280;5563;52.296;6.806;2023-06-19T10:18:57;101086.69;;;24.96;49.75
26443;BME280;5563;52.296;6.806;2023-06-19T10:21:46;101102.41;;;25.27;50.19
26443;BME280;5563;52.296;6.806;2023-06-19T10:24:20;101096.28;;;25.31;49.05
26443;BME280;5563;52.296;6.806;2023-06-19T10:26:59;101115.88;;;25.15;48.42
26443;BME280;5563;52.296;6.806;2023-06-19T10:29:38;101116.72;;;24.83;49.73
26443;BME280;5563;52.296;6.806;2023-06-19T10:32:25;101115.88;;;24.83;48.15
26443;BME280;5563;52.296;6.806;2023-06-19T10:34:52;101117.31;;;25.05;47.81
26443;BME280;5563;52.296;6.806;2023-06-19T10:37:32;101122.56;;;25.32;47.52
26443;BME280;5563;52.296;6.806;2023-06-19T10:40:13;101120.66;;;25.52;46.44
26443;BME280;5563;52.296;6.806;2023-06-19T10:42:54;101117.09;;;25.45;46.45
26443;BME280;5563;52.296;6.806;2023-06-19T10:45:27;101113.75;;;25.24;47.60
26443;BME280;5563;52.296;6.806;2023-06-19T10:48:02;101114.19;;;25.08;47.30
26443;BME280;5563;52.296;6.806;2023-06-19T10:50:37;101114.81;;;25.10;46.00
26443;BME280;5563;52.296;6.806;2023-06-19T10:53:25;101127.59;;;25.29;46.47
26443;BME280;5563;52.296;6.806;2023-06-19T10:55:57;101119.63;;;25.40;46.24
26443;BME280;5563;52.296;6.806;2023-06-19T10:58:30;101125.63;;;25.69;45.23
26443;BME280;5563;52.296;6.806;2023-06-19T11:01:04;101121.66;;;25.65;44.81
26443;BME280;5563;52.296;6.806;2023-06-19T11:03:31;101091.28;;;25.28;45.88
26443;BME280;5563;52.296;6.806;2023-06-19T11:06:05;101117.31;;;25.24;46.28
26443;BME280;5563;52.296;6.806;2023-06-19T11:08:50;101111.66;;;25.19;47.25
26443;BME280;5563;52.296;6.806;2023-06-19T11:11:37;101094.63;;;25.43;46.87
26443;BME280;5563;52.296;6.806;2023-06-19T11:14:04;101104.25;;;25.59;45.91
26443;BME280;5563;52.296;6.806;2023-06-19T11:16:42;101112.19;;;25.67;44.71
26443;BME280;5563;52.296;6.806;2023-06-19T11:19:18;101094.41;;;25.32;45.10
26443;BME280;5563;52.296;6.806;2023-06-19T11:21:53;101094.41;;;25.45;45.19
26443;BME280;5563;52.296;6.806;2023-06-19T11:24:22;101110.47;;;25.79;45.45
26443;BME280;5563;52.296;6.806;2023-06-19T11:26:57;101114.06;;;26.24;42.68
26443;BME280;5563;52.296;6.806;2023-06-19T11:29:28;101131.69;;;26.28;41.55
26443;BME280;5563;52.296;6.806;2023-06-19T11:32:12;101105.09;;;26.10;41.73
26443;BME280;5563;52.296;6.806;2023-06-19T11:34:39;101107.56;;;26.18;42.01
26443;BME280;5563;52.296;6.806;2023-06-19T11:37:14;101126.50;;;26.51;41.14
26443;BME280;5563;52.296;6.806;2023-06-19T11:39:45;101102.38;;;26.41;41.34
26443;BME280;5563;52.296;6.806;2023-06-19T11:42:25;101112.84;;;26.51;40.94
26443;BME280;5563;52.296;6.806;2023-06-19T11:44:59;101106.88;;;26.60;40.15
26443;BME280;5563;52.296;6.806;2023-06-19T11:47:35;101117.97;;;26.72;39.34
26443;BME280;5563;52.296;6.806;2023-06-19T11:50:07;101114.47;;;26.58;39.33
26443;BME280;5563;52.296;6.806;2023-06-19T11:52:34;101122.13;;;26.43;40.15
26443;BME280;5563;52.296;6.806;2023-06-19T11:55:08;101118.84;;;26.35;40.61
26443;BME280;5563;52.296;6.806;2023-06-19T11:57:35;101119.53;;;26.24;41.50
26443;BME280;5563;52.296;6.806;2023-06-19T12:00:14;101115.19;;;26.47;41.39
26443;BME280;5563;52.296;6.806;2023-06-19T12:02:41;101122.44;;;26.60;41.64
26443;BME280;5563;52.296;6.806;2023-06-19T12:05:15;101127.53;;;26.56;40.82
26443;BME280;5563;52.296;6.806;2023-06-19T12:07:42;101133.22;;;26.55;40.26
26443;BME280;5563;52.296;6.806;2023-06-19T12:10:16;101119.44;;;26.37;39.55
26443;BME280;5563;52.296;6.806;2023-06-19T12:12:50;101134.25;;;26.23;40.68
26443;BME280;5563;52.296;6.806;2023-06-19T12:15:24;101117.16;;;26.34;41.04
26443;BME280;5563;52.296;6.806;2023-06-19T12:17:52;101116.13;;;26.59;39.82
26443;BME280;5563;52.296;6.806;2023-06-19T12:20:29;101125.13;;;26.73;41.17
26443;BME280;5563;52.296;6.806;2023-06-19T12:23:03;101109.53;;;26.98;41.37
26443;BME280;5563;52.296;6.806;2023-06-19T12:25:37;101123.56;;;27.33;40.67
26443;BME280;5563;52.296;6.806;2023-06-19T12:28:11;101127.53;;;27.37;39.79
26443;BME280;5563;52.296;6.806;2023-06-19T12:30:38;101117.75;;;27.23;39.65
26443;BME280;5563;52.296;6.806;2023-06-19T12:33:12;101119.81;;;27.03;40.56
26443;BME280;5563;52.296;6.806;2023-06-19T12:35:45;101128.81;;;27.10;41.13
26443;BME280;5563;52.296;6.806;2023-06-19T12:38:19;101127.78;;;27.29;39.99
26443;BME280;5563;52.296;6.806;2023-06-19T12:40:53;101132.22;;;27.48;38.13
26443;BME280;5563;52.296;6.806;2023-06-19T12:43:32;101133.22;;;27.53;38.62
26443;BME280;5563;52.296;6.806;2023-06-19T12:46:06;101136.50;;;27.44;37.56
26443;BME280;5563;52.296;6.806;2023-06-19T12:48:33;101131.31;;;27.36;37.55
26443;BME280;5563;52.296;6.806;2023-06-19T12:51:06;101145.84;;;27.36;38.51
26443;BME280;5563;52.296;6.806;2023-06-19T12:53:40;101146.47;;;27.38;38.13
26443;BME280;5563;52.296;6.806;2023-06-19T12:56:06;101141.66;;;27.34;38.51
26443;BME280;5563;52.296;6.806;2023-06-19T12:58:39;101143.97;;;27.55;37.06
26443;BME280;5563;52.296;6.806;2023-06-19T13:01:13;101132.94;;;27.80;36.90
26443;BME280;5563;52.296;6.806;2023-06-19T13:03:40;101133.91;;;27.85;38.29
26443;BME280;5563;52.296;6.806;2023-06-19T13:06:13;101115.09;;;27.89;36.60
26443;BME280;5563;52.296;6.806;2023-06-19T13:08:47;101103.84;;;27.60;37.15
26443;BME280;5563;52.296;6.806;2023-06-19T13:11:14;101112.91;;;27.43;37.88
26443;BME280;5563;52.296;6.806;2023-06-19T13:13:48;101102.41;;;27.40;37.58
26443;BME280;5563;52.296;6.806;2023-06-19T13:16:15;101128.13;;;27.75;37.90
26443;BME280;5563;52.296;6.806;2023-06-19T13:19:11;101118.06;;;27.94;37.26
26443;BME280;5563;52.296;6.806;2023-06-19T13:21:38;101124.22;;;28.19;36.01
26443;BME280;5563;52.296;6.806;2023-06-19T13:24:11;101132.03;;;28.51;36.07
26443;BME280;5563;52.296;6.806;2023-06-19T13:26:39;101121.09;;;28.63;35.07
26443;BME280;5563;52.296;6.806;2023-06-19T13:29:06;101118.13;;;28.76;34.82